createdAt,value
2024-03-26T00:00:49.469Z,4.9257
2024-03-26T00:01:52.273Z,4.8801
2024-03-26T00:02:55.032Z,4.8844
2024-03-26T00:03:57.708Z,4.8632
2024-03-26T00:05:00.398Z,4.8366
2024-03-26T00:06:03.123Z,4.9111
2024-03-26T00:07:05.869Z,4.8849
2024-03-26T00:08:08.534Z,5.0261
2024-03-26T00:09:11.257Z,4.9788
2024-03-26T00:10:14.013Z,4.9463
2024-03-26T00:11:16.736Z,5.0196
2024-03-26T00:12:19.524Z,5.0016
2024-03-26T00:13:22.184Z,4.9228
2024-03-26T00:14:24.953Z,4.9129
2024-03-26T00:15:27.618Z,4.8964
2024-03-26T00:16:30.335Z,4.9087
2024-03-26T00:17:33.017Z,4.8199
2024-03-26T00:18:35.763Z,4.8426
2024-03-26T00:19:38.506Z,4.9749
2024-03-26T00:20:41.184Z,4.9135
2024-03-26T00:21:43.962Z,4.8323
2024-03-26T00:22:46.659Z,4.7988
2024-03-26T00:23:49.346Z,4.7472
2024-03-26T00:24:52.026Z,4.7220
2024-03-26T00:25:54.747Z,4.8215
2024-03-26T00:26:57.562Z,4.8602
2024-03-26T00:28:00.280Z,4.8227
2024-03-26T00:29:02.942Z,4.7941
2024-03-26T00:30:05.702Z,4.8344
2024-03-26T00:31:08.435Z,4.7114
2024-03-26T00:32:11.477Z,4.6804
2024-03-26T00:33:14.223Z,4.6463
2024-03-26T00:34:16.889Z,4.6735
2024-03-26T00:35:19.627Z,4.6577
2024-03-26T00:36:22.457Z,4.6036
2024-03-26T00:37:25.150Z,4.6192
2024-03-26T00:38:27.893Z,4.6166
2024-03-26T00:39:30.629Z,4.6273
2024-03-26T00:40:33.312Z,4.6991
2024-03-26T00:41:36.004Z,4.6852
2024-03-26T00:42:38.651Z,4.6632
2024-03-26T00:43:41.388Z,4.6303
2024-03-26T00:44:44.097Z,4.6812
2024-03-26T00:45:46.820Z,4.6914
2024-03-26T00:46:49.503Z,4.6548
2024-03-26T00:47:52.264Z,4.6562
2024-03-26T00:48:54.941Z,4.6214
2024-03-26T00:49:57.698Z,4.6649
2024-03-26T00:51:00.417Z,4.5996
2024-03-26T00:52:03.177Z,4.5444
2024-03-26T00:53:05.867Z,4.4727
2024-03-26T00:54:08.576Z,4.3613
2024-03-26T00:55:11.242Z,4.2679
2024-03-26T00:56:14.017Z,4.3196
2024-03-26T00:57:16.720Z,4.3527
2024-03-26T00:58:19.458Z,4.3238
2024-03-26T00:59:22.161Z,4.4091
2024-03-26T01:00:24.840Z,4.6208
2024-03-26T01:01:27.531Z,4.6530
2024-03-26T01:02:30.385Z,4.6070
2024-03-26T01:03:33.051Z,4.4552
2024-03-26T01:04:35.776Z,4.3385
2024-03-26T01:05:38.445Z,4.3127
2024-03-26T01:06:41.217Z,4.3079
2024-03-26T01:07:43.906Z,4.3269
2024-03-26T01:08:46.589Z,4.2545
2024-03-26T01:09:49.304Z,4.2731
2024-03-26T01:10:52.176Z,4.4144
2024-03-26T01:11:54.871Z,4.3615
2024-03-26T01:12:57.590Z,4.2115
2024-03-26T01:14:00.252Z,4.2013
2024-03-26T01:15:03.014Z,4.1357
2024-03-26T01:16:05.702Z,4.1333
2024-03-26T01:17:08.445Z,4.1332
2024-03-26T01:18:11.078Z,4.1636
2024-03-26T01:19:13.916Z,4.1341
2024-03-26T01:20:16.891Z,4.0584
2024-03-26T01:21:22.866Z,4.0746
2024-03-26T01:22:22.784Z,4.1758
2024-03-26T01:23:25.440Z,4.2032
2024-03-26T01:24:28.185Z,4.1222
2024-03-26T01:25:31.077Z,4.1416
2024-03-26T01:26:33.858Z,4.2812
2024-03-26T01:27:36.586Z,4.3190
2024-03-26T01:28:39.300Z,4.4235
2024-03-26T01:29:41.969Z,4.3778
2024-03-26T01:30:44.721Z,4.3908
2024-03-26T01:31:47.466Z,4.3802
2024-03-26T01:32:50.217Z,4.4493
2024-03-26T01:33:52.905Z,4.3143
2024-03-26T01:34:55.918Z,4.2823
2024-03-26T01:35:58.670Z,4.3447
2024-03-26T01:37:01.383Z,4.3932
2024-03-26T01:38:04.019Z,4.2891
2024-03-26T01:39:06.794Z,4.2182
2024-03-26T01:40:09.544Z,4.1830
2024-03-26T01:41:12.246Z,4.1424
2024-03-26T01:42:14.984Z,4.1572
2024-03-26T01:43:17.668Z,4.2001
2024-03-26T01:44:20.430Z,4.2229
2024-03-26T01:45:23.137Z,4.1829
2024-03-26T01:46:25.857Z,4.1400
2024-03-26T01:47:28.535Z,4.2324
2024-03-26T01:48:31.309Z,4.2159
2024-03-26T01:49:34.017Z,4.2461
2024-03-26T01:50:36.789Z,4.2185
2024-03-26T01:51:39.522Z,4.1882
2024-03-26T01:52:42.197Z,4.1078
2024-03-26T01:53:44.963Z,4.0971
2024-03-26T01:54:47.698Z,4.1111
2024-03-26T01:55:50.365Z,4.1065
2024-03-26T01:56:53.063Z,4.0492
2024-03-26T01:57:55.732Z,4.0137
2024-03-26T01:58:58.429Z,4.0036
2024-03-26T02:00:01.145Z,3.9931
2024-03-26T02:01:03.941Z,3.9252
2024-03-26T02:02:06.651Z,3.8833
2024-03-26T02:03:09.318Z,3.8603
2024-03-26T02:04:12.102Z,3.9151
2024-03-26T02:05:14.822Z,4.0793
2024-03-26T02:06:17.533Z,4.1112
2024-03-26T02:07:20.219Z,4.0391
2024-03-26T02:08:22.988Z,3.8552
2024-03-26T02:09:25.699Z,3.8001
2024-03-26T02:10:28.410Z,3.8639
2024-03-26T02:11:31.143Z,3.7980
2024-03-26T02:12:33.873Z,3.6810
2024-03-26T02:13:36.607Z,3.7497
2024-03-26T02:14:39.346Z,3.7463
2024-03-26T02:15:42.078Z,3.7823
2024-03-26T02:16:44.802Z,3.7569
2024-03-26T02:17:47.566Z,3.8139
2024-03-26T02:18:50.224Z,3.8437
2024-03-26T02:19:52.960Z,3.8608
2024-03-26T02:20:55.732Z,4.0023
2024-03-26T02:21:58.478Z,3.9740
2024-03-26T02:23:01.188Z,3.9419
2024-03-26T02:24:04.134Z,3.8925
2024-03-26T02:25:06.820Z,3.9109
2024-03-26T02:26:09.558Z,3.8875
2024-03-26T02:27:12.255Z,3.9755
2024-03-26T02:28:14.970Z,3.9689
2024-03-26T02:29:17.742Z,3.9640
2024-03-26T02:30:20.427Z,3.9120
2024-03-26T02:31:23.138Z,3.8596
2024-03-26T02:32:25.962Z,3.8163
2024-03-26T02:33:28.655Z,3.8823
2024-03-26T02:34:31.405Z,3.9562
2024-03-26T02:35:34.131Z,4.0071
2024-03-26T02:36:36.854Z,4.0289
2024-03-26T02:37:39.581Z,4.0148
2024-03-26T02:38:42.358Z,3.9694
2024-03-26T02:39:45.160Z,4.0737
2024-03-26T02:40:47.939Z,4.0944
2024-03-26T02:41:50.717Z,4.0950
2024-03-26T02:42:53.448Z,4.1065
2024-03-26T02:43:56.228Z,4.0866
2024-03-26T02:44:58.963Z,4.0467
2024-03-26T02:46:01.852Z,4.0585
2024-03-26T02:47:04.586Z,4.0645
2024-03-26T02:48:07.324Z,4.0394
2024-03-26T02:49:10.011Z,4.0240
2024-03-26T02:50:12.742Z,3.9694
2024-03-26T02:51:15.458Z,3.9473
2024-03-26T02:52:18.173Z,3.9495
2024-03-26T02:53:20.958Z,3.9191
2024-03-26T02:54:23.675Z,3.9363
2024-03-26T02:55:26.569Z,3.9798
2024-03-26T02:56:29.372Z,4.1087
2024-03-26T02:57:32.113Z,4.0811
2024-03-26T02:58:34.850Z,4.0170
2024-03-26T02:59:37.668Z,3.9522
2024-03-26T03:00:40.556Z,3.9167
2024-03-26T03:01:43.297Z,3.8282
2024-03-26T03:02:47.255Z,3.7836
2024-03-26T03:03:47.137Z,3.8103
2024-03-26T03:04:49.977Z,3.7604
2024-03-26T03:05:52.719Z,3.8207
2024-03-26T03:06:55.425Z,3.9749
2024-03-26T03:07:58.154Z,4.0268
2024-03-26T03:09:00.937Z,4.0304
2024-03-26T03:10:03.751Z,4.0093
2024-03-26T03:11:06.482Z,3.9847
2024-03-26T03:12:09.217Z,3.9292
2024-03-26T03:13:11.996Z,3.9151
2024-03-26T03:14:14.777Z,3.9563
2024-03-26T03:15:17.515Z,3.9008
2024-03-26T03:16:20.244Z,3.9332
2024-03-26T03:17:23.041Z,3.9740
2024-03-26T03:18:25.854Z,3.9537
2024-03-26T03:19:28.578Z,4.0134
2024-03-26T03:20:31.321Z,3.9959
2024-03-26T03:21:34.068Z,3.9191
2024-03-26T03:22:36.840Z,3.8934
2024-03-26T03:23:39.773Z,4.0087
2024-03-26T03:24:42.497Z,4.0255
2024-03-26T03:25:45.262Z,4.0084
2024-03-26T03:26:48.011Z,4.0811
2024-03-26T03:27:50.724Z,4.0633
2024-03-26T03:28:53.437Z,3.9774
2024-03-26T03:29:56.177Z,3.9396
2024-03-26T03:30:58.968Z,3.9632
2024-03-26T03:32:01.696Z,3.9577
2024-03-26T03:33:04.580Z,3.9065
2024-03-26T03:34:07.285Z,3.8820
2024-03-26T03:35:10.040Z,3.8488
2024-03-26T03:36:12.722Z,3.9013
2024-03-26T03:37:15.464Z,3.8786
2024-03-26T03:38:18.165Z,3.9197
2024-03-26T03:39:20.899Z,3.9578
2024-03-26T03:40:23.603Z,3.9709
2024-03-26T03:41:26.340Z,4.0707
2024-03-26T03:42:29.045Z,4.1536
2024-03-26T03:43:31.778Z,4.1895
2024-03-26T03:44:34.495Z,4.1907
2024-03-26T03:45:37.479Z,4.2231
2024-03-26T03:46:40.245Z,4.1888
2024-03-26T03:47:42.988Z,4.1496
2024-03-26T03:48:45.680Z,4.1805
2024-03-26T03:49:48.393Z,4.2456
2024-03-26T03:50:51.242Z,4.2418
2024-03-26T03:51:53.962Z,4.2105
2024-03-26T03:52:56.692Z,4.1949
2024-03-26T03:53:59.420Z,4.2349
2024-03-26T03:55:02.338Z,4.2944
2024-03-26T03:56:05.057Z,4.2713
2024-03-26T03:57:07.785Z,4.2128
2024-03-26T03:58:10.831Z,4.1321
2024-03-26T03:59:13.531Z,4.0913
2024-03-26T04:00:16.272Z,4.0482
2024-03-26T04:01:18.968Z,4.0023
2024-03-26T04:02:21.693Z,4.0100
2024-03-26T04:03:24.460Z,3.9999
2024-03-26T04:04:27.228Z,4.0796
2024-03-26T04:05:29.955Z,4.0191
2024-03-26T04:06:32.731Z,4.1220
2024-03-26T04:07:35.620Z,4.0989
2024-03-26T04:08:38.336Z,4.1489
2024-03-26T04:09:41.048Z,4.1280
2024-03-26T04:10:43.767Z,4.1057
2024-03-26T04:11:46.485Z,4.0796
2024-03-26T04:12:49.299Z,4.0373
2024-03-26T04:13:52.014Z,4.0102
2024-03-26T04:14:54.749Z,3.9688
2024-03-26T04:15:57.696Z,4.0716
2024-03-26T04:17:00.426Z,4.1131
2024-03-26T04:18:03.207Z,4.1492
2024-03-26T04:19:05.977Z,4.1585
2024-03-26T04:20:08.717Z,4.1814
2024-03-26T04:21:11.402Z,4.1679
2024-03-26T04:22:14.140Z,4.1260
2024-03-26T04:23:16.912Z,4.0795
2024-03-26T04:24:19.776Z,4.0391
2024-03-26T04:25:22.593Z,3.9737
2024-03-26T04:26:25.322Z,3.9108
2024-03-26T04:27:28.060Z,3.8687
2024-03-26T04:28:30.808Z,3.7918
2024-03-26T04:29:33.548Z,3.7135
2024-03-26T04:30:36.395Z,3.6615
2024-03-26T04:31:39.142Z,3.6595
2024-03-26T04:32:41.860Z,3.8034
2024-03-26T04:33:44.591Z,3.8520
2024-03-26T04:34:47.271Z,3.8755
2024-03-26T04:35:50.038Z,3.8615
2024-03-26T04:36:52.723Z,3.8692
2024-03-26T04:37:55.457Z,3.7920
2024-03-26T04:38:58.484Z,3.6451
2024-03-26T04:40:01.253Z,3.6242
2024-03-26T04:41:04.007Z,3.6510
2024-03-26T04:42:06.748Z,3.6607
2024-03-26T04:43:09.455Z,3.6417
2024-03-26T04:44:12.207Z,3.6488
2024-03-26T04:45:14.944Z,3.6055
2024-03-26T04:46:17.667Z,3.6169
2024-03-26T04:47:20.605Z,3.6345
2024-03-26T04:48:23.379Z,3.6755
2024-03-26T04:49:26.086Z,3.6866
2024-03-26T04:50:28.887Z,3.6108
2024-03-26T04:51:31.774Z,3.5089
2024-03-26T04:52:34.520Z,3.4889
2024-03-26T04:53:37.342Z,3.4850
2024-03-26T04:54:40.251Z,3.4912
2024-03-26T04:55:42.964Z,3.4745
2024-03-26T04:56:45.684Z,3.4303
2024-03-26T04:57:48.412Z,3.4091
2024-03-26T04:58:51.151Z,3.3493
2024-03-26T04:59:53.860Z,3.2917
2024-03-26T05:00:56.577Z,3.2595
2024-03-26T05:01:59.376Z,3.5350
2024-03-26T05:03:02.135Z,3.5884
2024-03-26T05:04:04.876Z,3.5659
2024-03-26T05:05:07.618Z,3.5003
2024-03-26T05:06:10.430Z,3.4424
2024-03-26T05:07:13.154Z,3.4212
2024-03-26T05:08:15.946Z,3.4154
2024-03-26T05:09:18.649Z,3.4193
2024-03-26T05:10:21.397Z,3.3138
2024-03-26T05:11:24.154Z,3.2787
2024-03-26T05:12:27.220Z,3.2540
2024-03-26T05:13:29.925Z,3.2706
2024-03-26T05:14:32.890Z,3.2911
2024-03-26T05:15:35.612Z,3.3177
2024-03-26T05:16:38.379Z,3.3807
2024-03-26T05:17:41.118Z,3.3840
2024-03-26T05:18:43.852Z,3.3475
2024-03-26T05:19:46.584Z,3.3442
2024-03-26T05:20:49.348Z,3.3959
2024-03-26T05:21:52.196Z,3.4628
2024-03-26T05:22:55.009Z,3.4906
2024-03-26T05:23:57.755Z,3.4947
2024-03-26T05:25:00.503Z,3.4500
2024-03-26T05:26:03.456Z,3.4789
2024-03-26T05:27:06.239Z,3.4933
2024-03-26T05:28:08.967Z,3.4254
2024-03-26T05:29:11.776Z,3.3473
2024-03-26T05:30:14.478Z,3.4018
2024-03-26T05:31:17.159Z,3.5126
2024-03-26T05:32:19.845Z,3.5360
2024-03-26T05:33:22.556Z,3.5276
2024-03-26T05:34:25.344Z,3.5337
2024-03-26T05:35:28.271Z,3.4947
2024-03-26T05:36:30.971Z,3.4147
2024-03-26T05:37:33.669Z,3.3451
2024-03-26T05:38:36.442Z,3.4286
2024-03-26T05:39:39.085Z,3.4985
2024-03-26T05:40:41.860Z,3.5255
2024-03-26T05:41:44.536Z,3.4984
2024-03-26T05:42:47.291Z,3.4610
2024-03-26T05:43:50.028Z,3.3580
2024-03-26T05:44:52.793Z,3.3727
2024-03-26T05:45:55.436Z,3.3766
2024-03-26T05:46:58.177Z,3.3459
2024-03-26T05:48:00.900Z,3.3671
2024-03-26T05:49:03.622Z,3.4629
2024-03-26T05:50:06.303Z,3.5147
2024-03-26T05:51:09.037Z,3.5846
2024-03-26T05:52:11.778Z,3.5936
2024-03-26T05:53:14.500Z,3.5881
2024-03-26T05:54:17.186Z,3.6440
2024-03-26T05:55:19.937Z,3.6347
2024-03-26T05:56:22.993Z,3.7129
2024-03-26T05:57:25.694Z,3.7157
2024-03-26T05:58:28.422Z,3.7596
2024-03-26T05:59:31.124Z,3.8029
2024-03-26T06:00:33.891Z,3.7636
2024-03-26T06:01:36.587Z,3.7470
2024-03-26T06:02:39.359Z,3.7762
2024-03-26T06:03:42.054Z,3.7716
2024-03-26T06:04:44.739Z,3.7759
2024-03-26T06:05:47.570Z,3.7925
2024-03-26T06:06:50.254Z,3.7823
2024-03-26T06:07:52.916Z,3.8093
2024-03-26T06:08:55.690Z,3.8338
2024-03-26T06:09:58.347Z,3.8152
2024-03-26T06:11:01.058Z,3.8304
2024-03-26T06:12:03.741Z,3.8603
2024-03-26T06:13:07.785Z,3.8084
2024-03-26T06:14:07.084Z,3.8367
2024-03-26T06:15:09.786Z,3.8209
2024-03-26T06:16:12.474Z,3.8329
2024-03-26T06:17:15.146Z,3.8894
2024-03-26T06:18:17.809Z,3.9764
2024-03-26T06:19:20.585Z,4.0304
2024-03-26T06:20:23.250Z,4.0921
2024-03-26T06:21:25.997Z,4.1204
2024-03-26T06:22:28.762Z,4.1768
2024-03-26T06:23:31.528Z,4.2339
2024-03-26T06:24:34.173Z,4.2871
2024-03-26T06:25:36.869Z,4.3351
2024-03-26T06:26:39.613Z,4.3865
2024-03-26T06:27:42.288Z,4.4061
2024-03-26T06:28:45.056Z,4.3710
2024-03-26T06:29:47.782Z,4.4339
2024-03-26T06:30:50.491Z,4.4678
2024-03-26T06:31:53.234Z,4.5339
2024-03-26T06:32:55.987Z,4.5945
2024-03-26T06:33:58.678Z,4.7377
2024-03-26T06:35:01.373Z,4.6570
2024-03-26T06:36:04.100Z,4.7430
2024-03-26T06:37:06.805Z,4.7200
2024-03-26T06:38:09.880Z,4.8521
2024-03-26T06:39:12.625Z,4.7189
2024-03-26T06:40:15.319Z,4.7592
2024-03-26T06:41:17.996Z,4.7769
2024-03-26T06:42:20.746Z,4.7114
2024-03-26T06:43:23.459Z,4.7809
2024-03-26T06:44:26.231Z,4.8128
2024-03-26T06:45:29.223Z,4.9322
2024-03-26T06:46:31.918Z,5.0038
2024-03-26T06:47:34.650Z,5.0632
2024-03-26T06:48:37.387Z,5.1075
2024-03-26T06:49:40.147Z,5.1382
2024-03-26T06:50:42.836Z,5.2948
2024-03-26T06:51:46.135Z,5.4235
2024-03-26T06:52:48.926Z,5.4848
2024-03-26T06:53:51.608Z,5.3821
2024-03-26T06:54:54.352Z,5.3588
2024-03-26T06:55:57.076Z,5.4489
2024-03-26T06:56:59.780Z,5.5826
2024-03-26T06:58:02.558Z,5.5035
2024-03-26T06:59:05.212Z,5.5401
2024-03-26T07:00:07.922Z,5.7288
2024-03-26T07:01:10.591Z,5.6971
2024-03-26T07:02:13.390Z,5.7454
2024-03-26T07:03:16.142Z,5.6879
2024-03-26T07:04:18.817Z,5.7581
2024-03-26T07:05:21.536Z,5.7822
2024-03-26T07:06:24.256Z,5.7400
2024-03-26T07:07:26.993Z,5.7497
2024-03-26T07:08:29.687Z,5.8238
2024-03-26T07:09:32.362Z,5.8199
2024-03-26T07:10:35.134Z,5.8764
2024-03-26T07:11:37.868Z,5.9748
2024-03-26T07:12:40.557Z,5.9073
2024-03-26T07:13:43.232Z,5.7453
2024-03-26T07:14:46.036Z,5.8309
2024-03-26T07:15:48.820Z,5.7659
2024-03-26T07:16:51.478Z,5.6460
2024-03-26T07:17:54.209Z,5.7321
2024-03-26T07:18:56.873Z,5.7222
2024-03-26T07:19:59.631Z,5.7063
2024-03-26T07:21:02.340Z,5.6962
2024-03-26T07:22:05.115Z,5.6026
2024-03-26T07:23:07.754Z,5.6366
2024-03-26T07:24:10.503Z,5.7294
2024-03-26T07:25:13.241Z,5.6462
2024-03-26T07:26:15.960Z,5.6748
2024-03-26T07:27:18.663Z,5.7505
2024-03-26T07:28:21.374Z,5.7848
2024-03-26T07:29:24.099Z,5.8877
2024-03-26T07:30:26.844Z,5.9258
2024-03-26T07:31:29.511Z,5.9074
2024-03-26T07:32:32.223Z,5.9576
2024-03-26T07:33:34.985Z,6.1539
2024-03-26T07:34:37.723Z,6.0067
2024-03-26T07:35:40.443Z,6.0565
2024-03-26T07:36:43.162Z,6.2050
2024-03-26T07:37:45.859Z,6.3771
2024-03-26T07:38:48.591Z,6.5672
2024-03-26T07:39:51.277Z,6.5197
2024-03-26T07:40:53.998Z,6.7079
2024-03-26T07:41:56.743Z,6.9680
2024-03-26T07:43:01.417Z,6.9888
2024-03-26T07:43:59.419Z,6.9664
2024-03-26T07:45:02.536Z,7.2364
2024-03-26T07:46:05.208Z,7.4953
2024-03-26T07:47:08.098Z,7.5734
2024-03-26T07:48:10.857Z,7.6172
2024-03-26T07:49:13.561Z,7.7277
2024-03-26T07:50:16.302Z,7.8084
2024-03-26T07:51:19.646Z,7.8320
2024-03-26T07:52:19.545Z,7.7838
2024-03-26T07:53:22.333Z,7.7829
2024-03-26T07:54:24.947Z,7.9919
2024-03-26T07:55:27.688Z,8.0879
2024-03-26T07:56:30.389Z,7.9535
2024-03-26T07:57:33.115Z,8.3545
2024-03-26T07:58:35.786Z,8.6061
2024-03-26T07:59:38.533Z,8.6604
2024-03-26T08:00:41.323Z,8.7361
2024-03-26T08:01:44.263Z,8.6689
2024-03-26T08:02:46.948Z,8.4966
2024-03-26T08:03:49.712Z,8.3357
2024-03-26T08:04:52.414Z,8.6462
2024-03-26T08:05:55.220Z,8.6269
2024-03-26T08:06:57.941Z,8.5767
2024-03-26T08:08:00.878Z,8.7298
2024-03-26T08:09:03.612Z,8.4990
2024-03-26T08:10:06.399Z,8.3972
2024-03-26T08:11:09.381Z,8.6362
2024-03-26T08:12:12.050Z,8.6229
2024-03-26T08:13:14.823Z,8.7510
2024-03-26T08:14:17.581Z,8.7821
2024-03-26T08:15:20.303Z,8.9467
2024-03-26T08:16:23.032Z,9.2332
2024-03-26T08:17:25.735Z,9.2799
2024-03-26T08:18:28.493Z,9.3364
2024-03-26T08:19:31.630Z,9.3899
2024-03-26T08:20:31.383Z,9.4956
2024-03-26T08:21:34.079Z,9.6941
2024-03-26T08:22:36.761Z,9.7989
2024-03-26T08:23:39.480Z,9.6515
2024-03-26T08:24:42.240Z,9.5573
2024-03-26T08:25:44.940Z,9.8308
2024-03-26T08:26:47.636Z,9.8721
2024-03-26T08:27:50.341Z,10.2534
2024-03-26T08:28:53.069Z,10.1875
2024-03-26T08:29:55.777Z,10.2236
2024-03-26T08:30:58.519Z,10.4274
2024-03-26T08:32:01.218Z,10.6026
2024-03-26T08:33:04.408Z,10.4894
2024-03-26T08:34:07.142Z,10.6468
2024-03-26T08:35:09.859Z,10.8760
2024-03-26T08:36:13.017Z,10.8927
2024-03-26T08:37:12.670Z,11.0048
2024-03-26T08:38:15.355Z,10.6118
2024-03-26T08:39:18.055Z,10.3589
2024-03-26T08:40:20.941Z,10.5504
2024-03-26T08:41:23.793Z,10.3828
2024-03-26T08:42:26.519Z,10.5675
2024-03-26T08:43:29.285Z,10.4678
2024-03-26T08:44:32.351Z,10.1967
2024-03-26T08:45:35.019Z,10.1650
2024-03-26T08:46:37.706Z,10.3831
2024-03-26T08:47:40.428Z,10.1853
2024-03-26T08:48:43.152Z,10.0479
2024-03-26T08:49:45.860Z,10.1275
2024-03-26T08:50:48.606Z,10.0389
2024-03-26T08:51:52.202Z,9.9982
2024-03-26T08:52:51.571Z,9.8261
2024-03-26T08:53:54.279Z,10.0717
2024-03-26T08:54:56.979Z,10.0997
2024-03-26T08:56:08.565Z,10.1147
2024-03-26T08:57:01.407Z,10.0810
2024-03-26T08:58:04.058Z,10.3279
2024-03-26T08:59:06.806Z,10.4983
2024-03-26T09:00:09.557Z,10.2908
2024-03-26T09:01:12.279Z,10.6046
2024-03-26T09:02:14.992Z,10.7461
2024-03-26T09:03:17.772Z,10.6701
2024-03-26T09:04:21.934Z,10.9352
2024-03-26T09:05:22.608Z,10.8996
2024-03-26T09:06:25.299Z,10.9188
2024-03-26T09:07:28.206Z,11.2199
2024-03-26T09:08:31.000Z,11.1572
2024-03-26T09:09:33.696Z,10.9643
2024-03-26T09:10:36.431Z,11.1698
2024-03-26T09:11:39.146Z,11.5070
2024-03-26T09:12:41.865Z,11.6880
2024-03-26T09:13:45.019Z,11.9387
2024-03-26T09:14:47.692Z,11.5255
2024-03-26T09:15:50.482Z,11.8047
2024-03-26T09:16:53.192Z,11.9151
2024-03-26T09:17:55.922Z,12.2005
2024-03-26T09:19:01.701Z,12.7051
2024-03-26T09:20:01.641Z,12.4561
2024-03-26T09:21:04.366Z,11.9965
2024-03-26T09:22:07.316Z,12.3756
2024-03-26T09:23:10.026Z,12.0881
2024-03-26T09:24:12.719Z,11.9551
2024-03-26T09:25:15.460Z,11.6552
2024-03-26T09:26:18.195Z,11.8678
2024-03-26T09:27:20.922Z,12.1173
2024-03-26T09:28:23.692Z,12.2429
2024-03-26T09:29:26.365Z,12.6137
2024-03-26T09:30:29.377Z,12.9266
2024-03-26T09:31:32.141Z,12.9246
2024-03-26T09:32:34.830Z,13.1307
2024-03-26T09:33:37.597Z,12.4833
2024-03-26T09:34:40.332Z,12.2097
2024-03-26T09:35:43.308Z,12.4548
2024-03-26T09:36:46.158Z,12.8321
2024-03-26T09:37:49.941Z,13.4483
2024-03-26T09:38:51.048Z,13.2369
2024-03-26T09:39:51.748Z,12.4667
2024-03-26T09:40:54.555Z,12.6330
2024-03-26T09:41:57.439Z,12.2538
2024-03-26T09:43:00.167Z,12.8540
2024-03-26T09:44:03.050Z,12.9688
2024-03-26T09:45:06.857Z,12.1247
2024-03-26T09:46:06.659Z,12.2115
2024-03-26T09:47:09.377Z,11.4818
2024-03-26T09:48:12.096Z,11.4433
2024-03-26T09:49:14.830Z,11.4278
2024-03-26T09:50:17.628Z,11.7617
2024-03-26T09:51:20.571Z,12.0700
2024-03-26T09:52:23.331Z,11.8918
2024-03-26T09:53:26.068Z,12.3901
2024-03-26T09:54:28.996Z,12.2560
2024-03-26T09:55:31.805Z,12.8988
2024-03-26T09:56:34.528Z,12.3843
2024-03-26T09:57:37.274Z,12.6315
2024-03-26T09:58:40.289Z,12.4564
2024-03-26T09:59:43.093Z,12.6583
2024-03-26T10:00:45.834Z,13.1602
2024-03-26T10:01:48.548Z,12.7672
2024-03-26T10:02:51.454Z,12.9408
2024-03-26T10:03:54.509Z,12.6907
2024-03-26T10:04:57.244Z,13.0259
2024-03-26T10:06:00.097Z,12.4845
2024-03-26T10:07:02.982Z,12.0594
2024-03-26T10:08:05.715Z,11.5938
2024-03-26T10:09:08.735Z,11.6742
2024-03-26T10:10:11.488Z,11.8626
2024-03-26T10:11:14.273Z,11.6409
2024-03-26T10:12:17.243Z,11.6010
2024-03-26T10:13:20.003Z,12.0495
2024-03-26T10:14:22.771Z,12.5597
2024-03-26T10:15:25.700Z,12.6545
2024-03-26T10:16:28.426Z,12.7094
2024-03-26T10:17:33.250Z,12.7215
2024-03-26T10:18:32.854Z,12.9439
2024-03-26T10:19:35.608Z,12.6156
2024-03-26T10:20:38.412Z,12.0996
2024-03-26T10:21:41.373Z,12.3294
2024-03-26T10:22:44.108Z,12.3235
2024-03-26T10:23:46.901Z,12.6933
2024-03-26T10:24:49.858Z,12.7727
2024-03-26T10:25:52.572Z,12.9341
2024-03-26T10:26:55.381Z,13.3724
2024-03-26T10:27:58.097Z,12.9852
2024-03-26T10:29:01.082Z,12.7936
2024-03-26T10:30:03.886Z,12.8187
2024-03-26T10:31:06.653Z,12.0663
2024-03-26T10:32:09.629Z,11.4908
2024-03-26T10:33:12.560Z,11.5534
2024-03-26T10:34:15.245Z,11.7209
2024-03-26T10:35:18.021Z,12.0286
2024-03-26T10:36:20.815Z,12.2720
2024-03-26T10:37:23.548Z,12.4380
2024-03-26T10:38:26.487Z,12.3616
2024-03-26T10:39:29.285Z,11.9681
2024-03-26T10:40:32.021Z,11.7893
2024-03-26T10:41:34.935Z,12.5361
2024-03-26T10:42:37.968Z,12.2351
2024-03-26T10:43:40.695Z,12.3857
2024-03-26T10:44:43.704Z,12.1849
2024-03-26T10:45:59.960Z,12.1780
2024-03-26T10:46:49.399Z,12.3184
2024-03-26T10:47:48.938Z,12.0282
2024-03-26T10:48:57.495Z,12.0903
2024-03-26T10:49:53.414Z,12.0275
2024-03-26T10:50:56.625Z,12.1949
2024-03-26T10:51:59.377Z,11.9860
2024-03-26T10:53:02.296Z,11.5656
2024-03-26T10:54:05.103Z,11.7451
2024-03-26T10:55:07.830Z,11.9729
2024-03-26T10:56:10.714Z,11.9209
2024-03-26T10:57:13.478Z,12.1614
2024-03-26T10:58:16.201Z,12.2198
2024-03-26T10:59:18.979Z,12.4640
2024-03-26T11:00:21.946Z,12.5079
2024-03-26T11:01:24.666Z,12.6525
2024-03-26T11:02:27.396Z,12.5773
2024-03-26T11:03:30.106Z,12.8539
2024-03-26T11:04:32.831Z,13.5937
2024-03-26T11:05:35.861Z,14.1245
2024-03-26T11:06:38.606Z,14.4348
2024-03-26T11:07:41.577Z,14.6280
2024-03-26T11:08:44.360Z,14.7314
2024-03-26T11:09:47.115Z,15.1803
2024-03-26T11:10:52.500Z,14.8492
2024-03-26T11:11:52.099Z,14.8477
2024-03-26T11:12:54.890Z,15.7662
2024-03-26T11:13:57.639Z,16.4920
2024-03-26T11:15:00.454Z,16.4225
2024-03-26T11:16:03.799Z,16.1783
2024-03-26T11:17:04.044Z,17.2020
2024-03-26T11:18:06.936Z,16.9884
2024-03-26T11:19:09.727Z,17.3798
2024-03-26T11:20:12.668Z,17.6959
2024-03-26T11:21:15.396Z,17.0552
2024-03-26T11:22:18.459Z,16.8318
2024-03-26T11:23:21.258Z,16.8886
2024-03-26T11:24:23.998Z,16.4788
2024-03-26T11:25:26.788Z,16.3133
2024-03-26T11:26:29.657Z,16.7714
2024-03-26T11:27:32.676Z,17.6719
2024-03-26T11:28:35.391Z,17.4234
2024-03-26T11:29:38.302Z,16.4376
2024-03-26T11:30:41.157Z,17.6744
2024-03-26T11:31:43.956Z,17.8655
2024-03-26T11:32:46.707Z,17.5768
2024-03-26T11:33:49.631Z,18.4031
2024-03-26T11:34:52.459Z,17.0277
2024-03-26T11:35:55.202Z,17.4140
2024-03-26T11:36:58.108Z,17.3238
2024-03-26T11:38:03.485Z,18.0677
2024-03-26T11:39:03.087Z,18.5651
2024-03-26T11:40:06.024Z,19.3413
2024-03-26T11:41:08.984Z,19.9236
2024-03-26T11:42:11.867Z,19.4376
2024-03-26T11:43:14.762Z,19.9927
2024-03-26T11:44:17.554Z,19.7954
2024-03-26T11:45:20.518Z,18.8605
2024-03-26T11:46:23.267Z,20.1016
2024-03-26T11:47:26.101Z,19.0944
2024-03-26T11:48:28.844Z,18.4586
2024-03-26T11:49:31.762Z,18.1002
2024-03-26T11:50:34.536Z,17.0004
2024-03-26T11:51:37.869Z,17.4713
2024-03-26T11:52:38.301Z,17.9890
2024-03-26T11:53:41.310Z,17.3327
2024-03-26T11:54:44.118Z,16.6561
2024-03-26T11:55:47.085Z,17.0082
2024-03-26T11:56:49.848Z,17.4172
2024-03-26T11:57:52.625Z,17.2200
2024-03-26T11:58:55.578Z,18.2162
2024-03-26T11:59:58.326Z,18.5334
2024-03-26T12:01:01.099Z,18.6373
2024-03-26T12:02:03.839Z,17.1323
2024-03-26T12:03:06.796Z,16.4781
2024-03-26T12:04:09.524Z,17.1731
2024-03-26T12:05:12.527Z,17.6116
2024-03-26T12:06:15.245Z,16.4932
2024-03-26T12:07:17.996Z,17.7624
2024-03-26T12:08:20.749Z,18.4092
2024-03-26T12:09:23.545Z,18.7028
2024-03-26T12:10:26.317Z,18.3341
2024-03-26T12:11:29.191Z,18.1524
2024-03-26T12:12:31.879Z,17.8747
2024-03-26T12:13:34.607Z,18.3647
2024-03-26T12:14:37.345Z,18.6258
2024-03-26T12:15:40.374Z,19.2242
2024-03-26T12:16:43.331Z,19.4346
2024-03-26T12:17:46.230Z,19.3459
2024-03-26T12:18:48.969Z,19.1913
2024-03-26T12:19:51.882Z,18.4565
2024-03-26T12:20:54.946Z,18.6244
2024-03-26T12:21:57.693Z,18.1503
2024-03-26T12:23:00.492Z,18.6776
2024-03-26T12:24:03.272Z,19.1748
2024-03-26T12:25:06.166Z,19.1923
2024-03-26T12:26:08.910Z,18.6323
2024-03-26T12:27:11.844Z,17.4566
2024-03-26T12:28:14.649Z,18.0383
2024-03-26T12:29:17.399Z,18.8786
2024-03-26T12:30:20.404Z,18.7856
2024-03-26T12:31:23.325Z,19.0857
2024-03-26T12:32:26.124Z,18.6408
2024-03-26T12:33:28.949Z,19.7173
2024-03-26T12:34:31.871Z,20.3685
2024-03-26T12:35:34.624Z,20.9272
2024-03-26T12:36:37.460Z,20.9641
2024-03-26T12:37:40.390Z,20.2008
2024-03-26T12:38:43.128Z,20.3375
2024-03-26T12:39:46.109Z,20.4177
2024-03-26T12:40:48.949Z,19.8828
2024-03-26T12:41:51.696Z,19.3683
2024-03-26T12:42:54.611Z,19.0616
2024-03-26T12:43:57.330Z,19.2901
2024-03-26T12:45:00.167Z,19.5904
2024-03-26T12:46:02.974Z,19.3623
2024-03-26T12:47:05.825Z,18.4230
2024-03-26T12:48:08.649Z,18.3292
2024-03-26T12:49:11.568Z,18.0751
2024-03-26T12:50:14.392Z,18.0865
2024-03-26T12:51:17.145Z,18.7810
2024-03-26T12:52:20.041Z,19.7886
2024-03-26T12:53:22.766Z,20.2657
2024-03-26T12:54:25.816Z,20.2961